Time;durP1;ratioP1;P1;durP2;ratioP2;P2;SDS_P1;SDS_P2;PMS_P1;PMS_P2;Temp;Humidity;BMP_temperature;BMP_pressure;BME280_temperature;BME280_humidity;BME280_pressure;Samples;Min_cycle;Max_cycle;Signal;HPM_P1;HPM_P2
2022/02/10 00:13:55;;;;;;;;;;;;;;;;;;5011247;28;19937;-46
2022/02/10 00:16:48;;;;;;;;;;;;;;;;;;5016221;28;19909;-44
2022/02/10 00:21:57;;;;;;;;;;;;;;;;;;5016770;28;20366;-45
2022/02/10 00:35:24;;;;;;;;;;;;;;;;;;5015924;28;19963;-44
2022/02/10 00:37:58;;;;;;;;;;;;;;;;;;5015286;28;20283;-44
2022/02/10 00:40:23;;;;;;;;;;;;;;;;;;5014077;28;20024;-47
2022/02/10 00:42:48;;;;;;;;;;;;;;;;;;5018057;28;19995;-46
2022/02/10 00:45:14;;;;;;;;;;;;;;;;;;5018598;28;20324;-47
2022/02/10 00:48:02;;;;;;;;;;;;;;;;;;5018274;28;19916;-49
2022/02/10 00:50:25;;;;;;;;;;;;;;;;;;5014672;28;20463;-50
2022/02/10 00:52:57;;;;;;;;;;;;;;;;;;5013422;28;19913;-44
2022/02/10 00:55:26;;;;;;;;;;;;;;;;;;5013804;28;19967;-46
2022/02/10 00:57:51;;;;;;;;;;;;;;;;;;5015079;28;19939;-49
2022/02/10 01:24:34;;;;;;;;;;;;;;;;;;5015879;28;20281;-46
2022/02/10 01:29:45;;;;;;;;;;;;;;;;;;5016738;28;19920;-43
2022/02/10 01:32:11;;;;;;;;;;;;;;;;;;5017615;28;19984;-48
2022/02/10 01:34:43;;;;;;;;;;;;;;;;;;5014396;28;20485;-46
2022/02/10 01:37:08;;;;;;;;;;;;;;;;;;5013026;28;19978;-48
2022/02/10 01:39:40;;;;;;;;;;;;;;;;;;5014204;28;19976;-44
2022/02/10 02:04:07;;;;;;;;;;;;;;;;;;5020456;28;19916;-46
2022/02/10 02:06:41;;;;;;;;;;;;;;;;;;5016972;28;19913;-44
2022/02/10 02:09:10;;;;;;;;;;;;;;;;;;5017052;28;19905;-46
2022/02/10 02:11:39;;;;;;;;;;;;;;;;;;5015534;28;19909;-44
2022/02/10 02:14:04;;;;;;;;;;;;;;;;;;5014944;28;19959;-48
2022/02/10 02:16:29;;;;;;;;;;;;;;;;;;5018744;28;20369;-49
2022/02/10 02:18:54;;;;;;;;;;;;;;;;;;5018622;28;19924;-48
2022/02/10 02:21:19;;;;;;;;;;;;;;;;;;5018248;28;20613;-48
2022/02/10 02:23:45;;;;;;;;;;;;;;;;;;5015389;28;20000;-46
2022/02/10 02:26:14;;;;;;;;;;;;;;;;;;5014030;28;20367;-47
2022/02/10 02:28:44;;;;;;;;;;;;;;;;;;5011381;28;19905;-47
2022/02/10 02:31:15;;;;;;;;;;;;;;;;;;5015026;28;19944;-48
2022/02/10 02:37:04;;;;;;;;;;;;;;;;;;5016424;28;19988;-46
2022/02/10 03:06:38;;;;;;;;;;;;;;;;;;5021423;28;19935;-48
2022/02/10 03:09:10;;;;;;;;;;;;;;;;;;5019163;28;19990;-50
2022/02/10 03:11:37;;;;;;;;;;;;;;;;;;5018349;28;19905;-48
2022/02/10 03:14:13;;;;;;;;;;;;;;;;;;5019944;28;19964;-51
2022/02/10 04:00:39;;;;;;;;;;;;;;;;;;5018485;28;20546;-49
2022/02/10 04:31:19;;;;;;;;;;;;;;;;;;5018850;28;19915;-47
2022/02/10 05:34:41;;;;;;;;;;;;;;;;;;5013818;28;19920;-46
2022/02/10 05:37:06;;;;;;;;;;;;;;;;;;5018629;28;19913;-48
2022/02/10 05:39:36;;;;;;;;;;;;;;;;;;5015477;28;19913;-46
2022/02/10 05:44:51;;;;;;;;;;;;;;;;;;5017997;28;19937;-47
2022/02/10 06:02:54;;;;;;;;;;;;;;;;;;5015793;28;20382;-49
2022/02/10 06:51:15;;;;;;;;;;;;;;;;;;5014937;28;19909;-49
2022/02/10 07:04:32;;;;;;;;;;;;;;;;;;5015246;28;19956;-49
2022/02/10 07:43:17;;;;;;;;;;;;;;;;;;5013704;28;20401;-46
2022/02/10 07:57:38;;;;;;;;;;;;;;;;;;5017585;28;19920;-46
2022/02/10 08:29:21;;;;;;;;;;;;;;;;;;5013765;28;19917;-53
2022/02/10 08:57:19;;;;;;;;;;;;;;;;;;5014898;28;19912;-40
2022/02/10 09:00:16;;;;;;;;;;;;;;;;;;5014123;28;20457;-39
2022/02/10 09:19:03;;;;;;;;;;;;;;;;;;5019546;28;19918;-41
2022/02/10 10:01:12;;;;;;;;;;;;;;;;;;5014271;28;19913;-39
2022/02/10 10:03:43;;;;;;;;;;;;;;;;;;5016477;28;19967;-43
2022/02/10 10:11:25;;;;;;;;;;;;;;;;;;5016430;28;19910;-42
2022/02/10 10:14:05;;;;;;;;;;;;;;;;;;5015076;28;19912;-41
2022/02/10 10:16:43;;;;;;;;;;;;;;;;;;5013604;28;19909;-40
2022/02/10 10:19:38;;;;;;;;;;;;;;;;;;5015268;28;19909;-39
2022/02/10 10:22:22;;;;;;;;;;;;;;;;;;5014126;28;20302;-43
2022/02/10 10:25:12;;;;;;;;;;;;;;;;;;5013695;28;19905;-39
2022/02/10 10:27:56;;;;;;;;;;;;;;;;;;5012154;28;19917;-39
2022/02/10 10:44:47;;;;;;;;;;;;;;;;;;5012736;28;19995;-47
2022/02/10 11:00:08;;;;;;;;;;;;;;;;;;5013671;28;19916;-43
2022/02/10 11:37:41;;;;;;;;;;;;;;;;;;5017831;28;20348;-40
2022/02/10 11:40:08;;;;;;;;;;;;;;;;;;5016754;28;19955;-43
2022/02/10 11:43:06;;;;;;;;;;;;;;;;;;5019150;28;19917;-40
2022/02/10 11:48:27;;;;;;;;;;;;;;;;;;5016460;28;19936;-41
2022/02/10 12:40:10;;;;;;;;;;;;;;;;;;5018871;28;19912;-42
2022/02/10 12:43:30;;;;;;;;;;;;;;;;;;5018252;28;20354;-42
2022/02/10 13:48:22;;;;;;;;;;;;;;;;;;5015657;28;19912;-47
2022/02/10 14:17:50;;;;;;;;;;;;;;;;;;5018347;28;20602;-40
2022/02/10 14:20:39;;;;;;;;;;;;;;;;;;5017835;28;19932;-40
2022/02/10 14:26:06;;;;;;;;;;;;;;;;;;5014625;28;20365;-43
2022/02/10 14:28:25;;;;;;;;;;;;;;;;;;5017809;28;20363;-42
2022/02/10 14:30:51;;;;;;;;;;;;;;;;;;5019496;28;19996;-44
2022/02/10 14:33:22;;;;;;;;;;;;;;;;;;5017095;28;20676;-42
2022/02/10 14:36:02;;;;;;;;;;;;;;;;;;5012992;28;19905;-41
2022/02/10 15:56:48;;;;;;;;;;;;;;;;;;5018547;28;20015;-41
2022/02/10 16:18:10;;;;;;;;;;;;;;;;;;5019308;28;19912;-41
2022/02/10 16:20:35;;;;;;;;;;;;;;;;;;5018237;28;20028;-43
2022/02/10 16:23:04;;;;;;;;;;;;;;;;;;5018951;28;20004;-40
2022/02/10 16:25:31;;;;;;;;;;;;;;;;;;5019649;28;19909;-39
2022/02/10 16:28:08;;;;;;;;;;;;;;;;;;5015318;28;19909;-41
2022/02/10 16:30:34;;;;;;;;;;;;;;;;;;5019401;28;20007;-41
2022/02/10 16:32:59;;;;;;;;;;;;;;;;;;5015355;28;20402;-41
2022/02/10 16:35:25;;;;;;;;;;;;;;;;;;5020241;28;19909;-43
2022/02/10 16:37:50;;;;;;;;;;;;;;;;;;5014991;28;19910;-40
2022/02/10 16:40:15;;;;;;;;;;;;;;;;;;5018446;28;19916;-41
2022/02/10 16:42:40;;;;;;;;;;;;;;;;;;5017005;28;20400;-40
2022/02/10 16:45:06;;;;;;;;;;;;;;;;;;5016082;28;19905;-40
2022/02/10 16:47:31;;;;;;;;;;;;;;;;;;5019012;28;19937;-41
2022/02/10 16:49:57;;;;;;;;;;;;;;;;;;5015547;28;20409;-41
2022/02/10 16:52:27;;;;;;;;;;;;;;;;;;5015842;28;19909;-40
2022/02/10 16:55:10;;;;;;;;;;;;;;;;;;5015654;28;19944;-48
2022/02/10 16:57:43;;;;;;;;;;;;;;;;;;5020659;28;19913;-41
2022/02/10 17:00:30;;;;;;;;;;;;;;;;;;5018744;28;19905;-40
2022/02/10 17:19:04;;;;;;;;;;;;;;;;;;5015585;28;19905;-42
2022/02/10 17:27:05;;;;;;;;;;;;;;;;;;5017497;28;19935;-39
2022/02/10 17:32:12;;;;;;;;;;;;;;;;;;5017087;28;20000;-42
2022/02/10 17:34:51;;;;;;;;;;;;;;;;;;5015643;28;19905;-44
2022/02/10 17:37:30;;;;;;;;;;;;;;;;;;5019685;28;19988;-42
2022/02/10 17:45:53;;;;;;;;;;;;;;;;;;5017243;28;20382;-41
2022/02/10 17:53:45;;;;;;;;;;;;;;;;;;5013925;28;20019;-42
2022/02/10 17:56:11;;;;;;;;;;;;;;;;;;5015315;28;19909;-43
2022/02/10 17:58:36;;;;;;;;;;;;;;;;;;5015914;28;19909;-41
2022/02/10 18:01:01;;;;;;;;;;;;;;;;;;5012142;28;19909;-42
2022/02/10 18:03:26;;;;;;;;;;;;;;;;;;5014489;28;20370;-40
2022/02/10 18:08:36;;;;;;;;;;;;;;;;;;5016867;28;19955;-40
2022/02/10 18:14:06;;;;;;;;;;;;;;;;;;5010260;28;19983;-43
2022/02/10 18:16:44;;;;;;;;;;;;;;;;;;5018313;28;20027;-41
2022/02/10 18:19:24;;;;;;;;;;;;;;;;;;5014684;28;19923;-42
2022/02/10 18:22:44;;;;;;;;;;;;;;;;;;5015001;28;19916;-44
2022/02/10 19:10:05;;;;;;;;;;;;;;;;;;5013719;28;20438;-42
2022/02/10 19:12:41;;;;;;;;;;;;;;;;;;5015010;28;20346;-41
2022/02/10 19:15:16;;;;;;;;;;;;;;;;;;5014411;28;19955;-44
2022/02/10 19:17:41;;;;;;;;;;;;;;;;;;5014387;28;19909;-44
2022/02/10 19:20:06;;;;;;;;;;;;;;;;;;5016403;28;20369;-43
2022/02/10 19:22:31;;;;;;;;;;;;;;;;;;5018384;28;19928;-48
2022/02/10 19:24:56;;;;;;;;;;;;;;;;;;5011939;28;19915;-47
2022/02/10 19:27:22;;;;;;;;;;;;;;;;;;5011901;28;19910;-50
2022/02/10 19:29:48;;;;;;;;;;;;;;;;;;5012774;28;20443;-47
2022/02/10 19:32:17;;;;;;;;;;;;;;;;;;5010985;28;20432;-52
2022/02/10 19:34:42;;;;;;;;;;;;;;;;;;5013231;28;19916;-47
2022/02/10 19:37:10;;;;;;;;;;;;;;;;;;5019662;28;19905;-48
2022/02/10 19:39:37;;;;;;;;;;;;;;;;;;5017415;28;20003;-46
2022/02/10 19:42:02;;;;;;;;;;;;;;;;;;5018299;28;19909;-47
2022/02/10 19:44:27;;;;;;;;;;;;;;;;;;5018978;28;20321;-48
2022/02/10 19:46:53;;;;;;;;;;;;;;;;;;5018751;28;19987;-45
2022/02/10 19:49:23;;;;;;;;;;;;;;;;;;5021132;28;20022;-46
2022/02/10 19:51:49;;;;;;;;;;;;;;;;;;5020091;28;20468;-51
2022/02/10 19:54:18;;;;;;;;;;;;;;;;;;5020395;28;19917;-46
2022/02/10 19:56:43;;;;;;;;;;;;;;;;;;5017697;28;19905;-50
2022/02/10 19:59:14;;;;;;;;;;;;;;;;;;5018335;28;19935;-48
2022/02/10 20:01:40;;;;;;;;;;;;;;;;;;5018028;28;19909;-51
2022/02/10 20:04:09;;;;;;;;;;;;;;;;;;5016879;28;19919;-46
2022/02/10 20:06:34;;;;;;;;;;;;;;;;;;5020433;28;19940;-48
2022/02/10 20:08:59;;;;;;;;;;;;;;;;;;5019374;28;20425;-49
2022/02/10 20:11:24;;;;;;;;;;;;;;;;;;5018034;28;19917;-50
2022/02/10 20:13:49;;;;;;;;;;;;;;;;;;5020794;28;19919;-47
2022/02/10 20:16:15;;;;;;;;;;;;;;;;;;5018654;28;19949;-48
2022/02/10 20:18:40;;;;;;;;;;;;;;;;;;5019833;28;21187;-50
2022/02/10 20:21:08;;;;;;;;;;;;;;;;;;5020581;28;19915;-52
2022/02/10 20:23:34;;;;;;;;;;;;;;;;;;5018589;28;20016;-45
2022/02/10 20:25:59;;;;;;;;;;;;;;;;;;5020563;28;20489;-48
2022/02/10 20:28:26;;;;;;;;;;;;;;;;;;5017581;28;19912;-49
2022/02/10 20:30:51;;;;;;;;;;;;;;;;;;5018177;28;19959;-45
2022/02/10 20:33:18;;;;;;;;;;;;;;;;;;5018694;28;19992;-48
2022/02/10 20:35:46;;;;;;;;;;;;;;;;;;5016383;28;19905;-50
2022/02/10 20:38:12;;;;;;;;;;;;;;;;;;5017912;28;19999;-50
2022/02/10 20:40:41;;;;;;;;;;;;;;;;;;5016738;28;19945;-49
2022/02/10 20:43:08;;;;;;;;;;;;;;;;;;5014920;28;19936;-48
2022/02/10 20:45:34;;;;;;;;;;;;;;;;;;5017738;28;19905;-49
2022/02/10 20:47:59;;;;;;;;;;;;;;;;;;5018357;28;20716;-47
2022/02/10 20:50:25;;;;;;;;;;;;;;;;;;5016530;28;20409;-47
2022/02/10 20:52:50;;;;;;;;;;;;;;;;;;5016905;28;19936;-47
2022/02/10 20:55:15;;;;;;;;;;;;;;;;;;5016322;28;19917;-48
2022/02/10 20:57:40;;;;;;;;;;;;;;;;;;5018447;28;19928;-48
2022/02/10 21:00:05;;;;;;;;;;;;;;;;;;5014843;28;20385;-44
2022/02/10 21:02:38;;;;;;;;;;;;;;;;;;5016371;28;19917;-47
2022/02/10 21:05:23;;;;;;;;;;;;;;;;;;5016778;28;19905;-49
2022/02/10 21:08:01;;;;;;;;;;;;;;;;;;5016057;28;19909;-50
2022/02/10 21:10:28;;;;;;;;;;;;;;;;;;5012742;28;19996;-49
2022/02/10 21:12:53;;;;;;;;;;;;;;;;;;5017630;28;20356;-47
2022/02/10 21:15:25;;;;;;;;;;;;;;;;;;5018352;28;19913;-47
2022/02/10 21:17:55;;;;;;;;;;;;;;;;;;5018420;28;19905;-49
2022/02/10 21:20:22;;;;;;;;;;;;;;;;;;5015068;28;20333;-51
2022/02/10 21:22:57;;;;;;;;;;;;;;;;;;5018067;28;20000;-46
2022/02/10 21:25:24;;;;;;;;;;;;;;;;;;5015733;28;19916;-52
2022/02/10 21:27:51;;;;;;;;;;;;;;;;;;5017376;28;20015;-51
2022/02/10 21:30:16;;;;;;;;;;;;;;;;;;5012926;28;20002;-52
2022/02/10 21:56:39;;;;;;;;;;;;;;;;;;5015895;28;19988;-46
2022/02/10 22:23:21;;;;;;;;;;;;;;;;;;5015576;28;20118;-51
2022/02/10 22:25:46;;;;;;;;;;;;;;;;;;5015347;28;19906;-49
2022/02/10 22:28:43;;;;;;;;;;;;;;;;;;5013901;28;20424;-51
2022/02/10 22:31:20;;;;;;;;;;;;;;;;;;5016397;28;19955;-49
2022/02/10 22:36:15;;;;;;;;;;;;;;;;;;5014674;28;20286;-48
2022/02/10 22:38:41;;;;;;;;;;;;;;;;;;5014459;28;20330;-51
2022/02/10 22:41:10;;;;;;;;;;;;;;;;;;5012860;28;20052;-49
2022/02/10 22:43:35;;;;;;;;;;;;;;;;;;5015837;28;19913;-50
2022/02/10 22:46:01;;;;;;;;;;;;;;;;;;5016927;28;19916;-52
2022/02/10 22:48:26;;;;;;;;;;;;;;;;;;5019015;28;20500;-50
2022/02/10 22:50:51;;;;;;;;;;;;;;;;;;5015020;28;19944;-49
2022/02/10 22:53:16;;;;;;;;;;;;;;;;;;5017182;28;20287;-45
2022/02/10 22:55:41;;;;;;;;;;;;;;;;;;5011182;28;19984;-48
2022/02/10 22:58:06;;;;;;;;;;;;;;;;;;5014926;28;19916;-51
2022/02/10 23:00:32;;;;;;;;;;;;;;;;;;5010787;28;19927;-47
2022/02/10 23:02:57;;;;;;;;;;;;;;;;;;5015696;28;20015;-50
2022/02/10 23:05:23;;;;;;;;;;;;;;;;;;5015567;28;19909;-50
2022/02/10 23:07:54;;;;;;;;;;;;;;;;;;5016945;28;19905;-51
2022/02/10 23:12:44;;;;;;;;;;;;;;;;;;5021551;28;19928;-49
2022/02/10 23:15:10;;;;;;;;;;;;;;;;;;5019305;28;19932;-50
2022/02/10 23:17:36;;;;;;;;;;;;;;;;;;5019033;28;20000;-50
2022/02/10 23:20:01;;;;;;;;;;;;;;;;;;5019272;28;19998;-50
2022/02/10 23:22:26;;;;;;;;;;;;;;;;;;5018395;28;19964;-51
2022/02/10 23:24:51;;;;;;;;;;;;;;;;;;5018536;28;19912;-51
2022/02/10 23:27:17;;;;;;;;;;;;;;;;;;5018478;28;20564;-48
2022/02/10 23:29:43;;;;;;;;;;;;;;;;;;5015488;28;19909;-53
2022/02/10 23:32:10;;;;;;;;;;;;;;;;;;5018208;28;20368;-49
2022/02/10 23:34:36;;;;;;;;;;;;;;;;;;5021062;28;19909;-52
2022/02/10 23:37:01;;;;;;;;;;;;;;;;;;5017664;28;19928;-50
2022/02/10 23:39:30;;;;;;;;;;;;;;;;;;5018036;28;20369;-50
2022/02/10 23:42:02;;;;;;;;;;;;;;;;;;5016645;28;19909;-49
2022/02/10 23:44:33;;;;;;;;;;;;;;;;;;5018773;28;20004;-50
2022/02/10 23:47:00;;;;;;;;;;;;;;;;;;5019638;28;20749;-48
2022/02/10 23:49:26;;;;;;;;;;;;;;;;;;5017017;28;19979;-51
2022/02/10 23:51:58;;;;;;;;;;;;;;;;;;5018337;28;19905;-48
2022/02/10 23:54:23;;;;;;;;;;;;;;;;;;5018674;28;19914;-51
2022/02/10 23:56:55;;;;;;;;;;;;;;;;;;5017507;28;19905;-51
